Time;durP1;ratioP1;P1;durP2;ratioP2;P2;SDS_P1;SDS_P2;PMS_P1;PMS_P2;Temp;Humidity;BMP_temperature;BMP_pressure;BME280_temperature;BME280_humidity;BME280_pressure;Samples;Min_cycle;Max_cycle;Signal;HPM_P1;HPM_P2
2022/10/03 00:00:13;;;;;;;0.50;0.50;;;;;;;12.35;86.41;99557.06;5091098;28;20093;-67
2022/10/03 00:03:02;;;;;;;0.43;0.43;;;;;;;12.41;86.55;99572.34;5094052;28;20052;-67
2022/10/03 00:05:45;;;;;;;1.00;0.82;;;;;;;12.39;86.86;99556.16;5093676;28;20056;-67
2022/10/03 00:08:26;;;;;;;0.95;0.95;;;;;;;12.43;87.00;99555.28;5094340;28;20044;-67
2022/10/03 00:11:06;;;;;;;1.52;0.93;;;;;;;12.46;87.02;99560.34;5093920;28;20040;-67
2022/10/03 00:13:46;;;;;;;0.75;0.75;;;;;;;12.49;86.71;99560.34;5093864;28;20494;-67
2022/10/03 00:16:23;;;;;;;0.80;0.80;;;;;;;12.51;87.09;99559.47;5093871;28;20062;-67
2022/10/03 00:19:02;;;;;;;0.30;0.30;;;;;;;12.53;87.19;99567.09;5093908;28;20059;-68
2022/10/03 00:21:47;;;;;;;1.40;1.30;;;;;;;12.54;87.08;99563.69;5093193;28;20040;-68
2022/10/03 00:24:29;;;;;;;0.70;0.70;;;;;;;12.53;87.25;99567.09;5094094;28;20071;-68
2022/10/03 00:27:06;;;;;;;2.47;1.40;;;;;;;12.52;87.06;99561.16;5094083;28;20046;-68
2022/10/03 00:29:58;;;;;;;0.60;0.60;;;;;;;12.46;87.40;99561.22;5093936;28;20048;-67
2022/10/03 00:32:42;;;;;;;0.47;0.47;;;;;;;12.40;87.38;99565.56;5093582;28;20089;-67
2022/10/03 00:35:35;;;;;;;0.50;0.50;;;;;;;12.39;87.52;99567.25;5093702;28;20048;-68
2022/10/03 00:38:20;;;;;;;1.05;0.80;;;;;;;12.41;87.63;99557.84;5093578;28;20046;-67
2022/10/03 00:41:13;;;;;;;0.65;0.65;;;;;;;12.45;87.69;99563.78;5093921;28;20039;-67
2022/10/03 00:44:07;;;;;;;0.55;0.55;;;;;;;12.45;87.70;99554.38;5093506;28;20062;-68
2022/10/03 00:46:58;;;;;;;1.48;1.38;;;;;;;12.51;87.59;99559.47;5088212;28;20464;-68
2022/10/03 00:49:49;;;;;;;0.73;0.63;;;;;;;12.54;87.63;99561.13;5093573;28;20486;-67
2022/10/03 00:52:43;;;;;;;0.60;0.60;;;;;;;12.57;87.00;99563.66;5093589;28;20044;-68
2022/10/03 00:55:27;;;;;;;3.70;1.70;;;;;;;12.54;87.24;99554.31;5093769;28;20048;-67
2022/10/03 00:58:07;;;;;;;0.30;0.30;;;;;;;12.56;87.12;99559.41;5093443;28;20048;-68
2022/10/03 01:00:35;;;;;;;;;;;;;;;12.53;87.30;99551.75;5093743;28;20615;-68
2022/10/03 01:03:22;;;;;;;1.05;0.98;;;;;;;12.58;87.43;99555.09;5093326;28;20374;-67
2022/10/03 01:06:07;;;;;;;0.63;0.63;;;;;;;12.61;87.04;99560.22;5093075;28;20048;-68
2022/10/03 01:08:56;;;;;;;1.60;1.13;;;;;;;12.65;87.26;99566.97;5093632;28;20044;-67
2022/10/03 01:11:36;;;;;;;0.30;0.30;;;;;;;12.60;86.56;99543.13;5093920;28;20444;-67
2022/10/03 01:14:23;;;;;;;0.50;0.50;;;;;;;12.71;86.39;99561.81;5093202;28;20559;-67
2022/10/03 01:17:03;;;;;;;0.28;0.28;;;;;;;12.72;86.23;99571.16;5093265;28;20036;-67
2022/10/03 01:19:59;;;;;;;0.73;0.73;;;;;;;12.74;86.18;99560.03;5093317;28;20044;-67
2022/10/03 01:22:56;;;;;;;0.50;0.50;;;;;;;12.77;85.99;99566.84;5093237;28;20048;-67
2022/10/03 01:25:38;;;;;;;1.80;0.85;;;;;;;12.75;85.85;99558.34;5091406;28;20452;-68
2022/10/03 01:31:21;;;;;;;0.60;0.57;;;;;;;12.80;85.71;99548.88;5093398;28;20082;-67
2022/10/03 01:33:59;;;;;;;1.33;1.23;;;;;;;12.76;85.42;99539.56;5095067;28;20075;-67
2022/10/03 01:36:34;;;;;;;0.77;0.70;;;;;;;12.80;85.13;99554.00;5096740;28;20048;-67
2022/10/03 01:39:13;;;;;;;0.40;0.40;;;;;;;12.77;85.09;99554.03;5097347;28;20375;-67
2022/10/03 01:41:52;;;;;;;0.63;0.63;;;;;;;12.76;85.01;99554.91;5096639;28;20055;-68
2022/10/03 01:44:30;;;;;;;1.67;1.58;;;;;;;12.72;84.65;99553.25;5096680;28;20048;-67
2022/10/03 01:47:16;;;;;;;0.50;0.43;;;;;;;12.67;84.36;99555.84;5097207;28;20421;-67
2022/10/03 01:49:51;;;;;;;0.70;0.70;;;;;;;12.66;84.33;99553.31;5096823;28;20055;-67
2022/10/03 01:52:28;;;;;;;0.45;0.45;;;;;;;12.61;84.07;99552.53;5096821;28;20392;-67
2022/10/03 01:55:06;;;;;;;0.65;0.63;;;;;;;12.64;83.83;99567.88;5096392;28;20048;-67
2022/10/03 01:57:42;;;;;;;0.60;0.60;;;;;;;12.63;83.59;99568.72;5096758;28;20046;-67
2022/10/03 02:00:16;;;;;;;0.40;0.40;;;;;;;12.61;83.75;99560.22;5096627;28;20054;-68
2022/10/03 02:02:49;;;;;;;1.75;0.85;;;;;;;12.59;83.45;99562.78;5096358;28;20552;-68
2022/10/03 02:05:28;;;;;;;3.92;0.85;;;;;;;12.58;83.24;99565.34;5096051;28;20108;-67
2022/10/03 02:08:06;;;;;;;0.50;0.50;;;;;;;12.56;82.91;99567.09;5096300;28;20054;-67
2022/10/03 02:10:45;;;;;;;0.90;0.77;;;;;;;12.54;82.90;99571.38;5096159;28;20054;-67
2022/10/03 02:13:21;;;;;;;0.52;0.52;;;;;;;12.56;82.85;99574.75;5096415;28;20052;-67
2022/10/03 02:16:03;;;;;;;0.68;0.68;;;;;;;12.52;82.78;99578.22;5096060;28;20055;-67
2022/10/03 02:18:45;;;;;;;0.40;0.40;;;;;;;12.52;82.54;99579.09;5096023;28;20039;-67
2022/10/03 02:21:17;;;;;;;0.40;0.40;;;;;;;12.53;82.19;99579.91;5096220;28;20044;-67
2022/10/03 02:23:48;;;;;;;0.47;0.47;;;;;;;12.53;82.22;99587.59;5095930;28;20113;-67
2022/10/03 02:26:41;;;;;;;0.40;0.40;;;;;;;12.58;81.98;99583.28;5096131;28;20126;-67
2022/10/03 02:29:36;;;;;;;4.97;0.82;;;;;;;12.59;81.37;99582.41;5096089;28;20048;-68
2022/10/03 02:32:38;;;;;;;0.43;0.43;;;;;;;12.58;81.01;99578.16;5095718;28;20056;-67
2022/10/03 02:35:28;;;;;;;0.40;0.40;;;;;;;12.58;80.77;99583.28;5075034;28;20047;-67
2022/10/03 02:38:24;;;;;;;0.55;0.55;;;;;;;12.58;80.86;99575.59;5095832;28;20397;-68
2022/10/03 02:41:19;;;;;;;0.30;0.30;;;;;;;12.58;80.72;99580.72;5095470;28;20051;-67
2022/10/03 02:44:17;;;;;;;0.35;0.35;;;;;;;12.56;80.70;99578.19;5095524;28;20055;-67
2022/10/03 02:47:14;;;;;;;3.22;1.48;;;;;;;12.55;80.47;99584.16;5093518;28;20363;-67
2022/10/03 02:50:13;;;;;;;1.38;0.68;;;;;;;12.56;80.59;99592.69;5095713;28;20048;-67
2022/10/03 02:53:03;;;;;;;1.17;0.75;;;;;;;12.55;80.74;99589.28;5095611;28;20375;-67
2022/10/03 02:56:03;;;;;;;0.80;0.80;;;;;;;12.54;80.90;99594.41;5095298;28;20093;-67
2022/10/03 02:58:40;;;;;;;;;;;;;;;12.52;80.99;99585.91;5095894;28;20127;-67
2022/10/03 03:01:30;;;;;;;0.45;0.45;;;;;;;12.49;80.80;99579.09;5095085;28;19926;-67
2022/10/03 03:04:21;;;;;;;1.23;1.13;;;;;;;12.50;80.86;99577.41;5095405;28;20047;-67
2022/10/03 03:07:19;;;;;;;2.67;0.85;;;;;;;12.47;81.07;99585.09;5094821;28;20048;-67
2022/10/03 03:10:10;;;;;;;0.38;0.38;;;;;;;12.42;81.12;99581.75;5095501;28;20134;-67
2022/10/03 03:13:03;;;;;;;0.47;0.47;;;;;;;12.42;80.88;99576.63;5094969;28;20072;-67
2022/10/03 03:16:00;;;;;;;0.60;0.60;;;;;;;12.39;81.33;99584.31;5094884;28;20063;-67
2022/10/03 03:18:37;;;;;;;0.70;0.70;;;;;;;12.40;81.05;99586.03;5094806;28;20052;-66
2022/10/03 03:21:29;;;;;;;0.68;0.68;;;;;;;12.40;81.22;99586.03;5095004;28;20119;-67
2022/10/03 03:24:16;;;;;;;0.50;0.50;;;;;;;12.41;80.77;99591.13;5094915;28;20044;-67
2022/10/03 03:26:56;;;;;;;0.73;0.73;;;;;;;12.39;80.82;99589.44;5094973;28;20514;-67
2022/10/03 03:29:39;;;;;;;2.85;1.33;;;;;;;12.40;80.64;99586.03;5095020;28;20390;-66
2022/10/03 03:32:20;;;;;;;0.55;0.55;;;;;;;12.40;80.58;99586.03;5094554;28;20044;-66
2022/10/03 03:34:59;;;;;;;1.42;1.00;;;;;;;12.41;80.13;99592.81;5094504;28;20454;-66
2022/10/03 03:37:37;;;;;;;0.32;0.32;;;;;;;12.39;80.08;99597.13;5094470;28;20517;-66
2022/10/03 03:40:31;;;;;;;0.60;0.60;;;;;;;12.39;80.20;99599.66;5094393;28;20048;-66
2022/10/03 03:43:25;;;;;;;0.40;0.40;;;;;;;12.37;79.71;99599.69;5094267;28;20044;-67
2022/10/03 03:46:06;;;;;;;0.50;0.50;;;;;;;12.37;79.90;99611.66;5094328;28;20048;-67
2022/10/03 03:49:00;;;;;;;0.40;0.40;;;;;;;12.37;79.49;99614.19;5094288;28;20055;-67
2022/10/03 03:51:37;;;;;;;0.82;0.68;;;;;;;12.34;79.45;99606.53;5094565;28;20047;-67
2022/10/03 03:54:37;;;;;;;0.75;0.75;;;;;;;12.34;79.06;99607.41;5094155;28;20052;-66
2022/10/03 03:57:23;;;;;;;0.63;0.57;;;;;;;12.34;79.23;99604.84;5093530;28;20048;-67
2022/10/03 04:00:08;;;;;;;3.03;0.75;;;;;;;12.35;78.79;99605.69;5094048;28;20044;-67
2022/10/03 04:03:03;;;;;;;0.43;0.43;;;;;;;12.29;79.15;99603.16;5093970;28;20106;-66
2022/10/03 04:05:44;;;;;;;0.35;0.35;;;;;;;12.27;78.74;99604.91;5094048;28;20398;-67
2022/10/03 04:08:39;;;;;;;0.40;0.40;;;;;;;12.26;78.87;99609.16;5094004;28;20055;-67
2022/10/03 04:11:22;;;;;;;0.35;0.35;;;;;;;12.24;78.78;99610.91;5093900;28;20048;-67
2022/10/03 04:14:16;;;;;;;1.17;1.05;;;;;;;12.21;78.53;99610.09;5093889;28;20048;-67
2022/10/03 04:19:54;;;;;;;0.50;0.50;;;;;;;12.19;78.64;99616.94;5094732;28;20047;-67
2022/10/03 04:22:37;;;;;;;0.40;0.40;;;;;;;12.19;78.23;99619.50;5093669;28;20094;-66
2022/10/03 04:25:19;;;;;;;0.93;0.90;;;;;;;12.18;78.20;99620.34;5094029;28;20070;-66
2022/10/03 04:28:09;;;;;;;0.60;0.60;;;;;;;12.19;78.03;99627.16;5094038;28;20044;-66
2022/10/03 04:30:52;;;;;;;0.60;0.60;;;;;;;12.15;77.73;99636.56;5093571;28;20089;-67
2022/10/03 04:33:31;;;;;;;0.40;0.40;;;;;;;12.14;77.56;99632.28;5093715;28;20044;-66
2022/10/03 04:36:41;;;;;;;0.80;0.80;;;;;;;12.13;77.71;99627.19;5093576;28;20066;-67
2022/10/03 04:39:23;;;;;;;0.40;0.40;;;;;;;12.13;77.60;99637.44;5092658;28;20089;-67
2022/10/03 04:41:58;;;;;;;0.82;0.55;;;;;;;12.15;77.25;99628.88;5093729;28;20040;-67
2022/10/03 04:44:39;;;;;;;0.50;0.50;;;;;;;12.18;76.90;99626.31;5093758;28;20543;-66
2022/10/03 04:47:17;;;;;;;0.60;0.60;;;;;;;12.15;76.78;99625.47;5093762;28;20101;-67
2022/10/03 04:49:52;;;;;;;0.30;0.30;;;;;;;12.20;76.61;99629.69;5093485;28;20048;-66
2022/10/03 04:52:30;;;;;;;0.60;0.60;;;;;;;12.20;76.35;99626.28;5093359;28;20051;-67
2022/10/03 04:55:15;;;;;;;0.38;0.38;;;;;;;12.22;76.27;99637.34;5093423;28;20497;-66
2022/10/03 04:57:51;;;;;;;0.65;0.57;;;;;;;12.19;76.26;99632.28;5093728;28;20051;-67
2022/10/03 05:00:24;;;;;;;0.35;0.35;;;;;;;12.24;76.25;99651.00;5093729;28;20055;-67
2022/10/03 05:03:01;;;;;;;0.75;0.75;;;;;;;12.24;76.16;99645.91;5093215;28;20134;-66
2022/10/03 05:05:48;;;;;;;0.40;0.40;;;;;;;12.23;76.46;99645.03;5093249;28;20452;-66
2022/10/03 05:08:32;;;;;;;0.47;0.47;;;;;;;12.28;76.44;99647.56;5094176;28;20089;-66
2022/10/03 05:11:28;;;;;;;1.65;0.88;;;;;;;12.29;76.21;99654.34;5097617;28;20541;-67
2022/10/03 05:14:10;;;;;;;0.50;0.50;;;;;;;12.29;76.06;99639.00;5095991;28;20040;-67
2022/10/03 05:16:45;;;;;;;0.52;0.52;;;;;;;12.28;76.02;99647.56;5097180;28;20056;-66
2022/10/03 05:19:46;;;;;;;0.50;0.50;;;;;;;12.26;76.15;99649.28;5097145;28;20052;-66
2022/10/03 05:22:29;;;;;;;0.50;0.50;;;;;;;12.26;75.88;99656.97;5096931;28;20058;-67
2022/10/03 05:25:14;;;;;;;0.30;0.30;;;;;;;12.25;76.11;99655.25;5097026;28;20512;-67
2022/10/03 05:27:52;;;;;;;0.45;0.45;;;;;;;12.28;75.87;99657.78;5097306;28;20139;-67
2022/10/03 05:30:34;;;;;;;0.30;0.30;;;;;;;12.30;75.93;99656.06;5097002;28;20431;-66
2022/10/03 05:33:13;;;;;;;0.60;0.60;;;;;;;12.32;75.62;99664.56;5096768;28;20494;-67
2022/10/03 05:35:55;;;;;;;0.40;0.40;;;;;;;12.35;75.27;99669.69;5096817;28;20554;-66
2022/10/03 05:38:48;;;;;;;0.40;0.40;;;;;;;12.33;75.24;99674.81;5096837;28;20063;-66
2022/10/03 05:41:26;;;;;;;1.90;1.10;;;;;;;12.35;75.24;99672.22;5063786;28;20044;-67
2022/10/03 05:44:05;;;;;;;0.30;0.30;;;;;;;12.36;74.93;99669.66;5096822;28;20109;-66
2022/10/03 05:46:46;;;;;;;0.32;0.32;;;;;;;12.41;75.28;99669.63;5096979;28;20477;-67
2022/10/03 05:49:34;;;;;;;2.15;1.95;;;;;;;12.48;74.95;99663.56;5096581;28;20138;-67
2022/10/03 05:52:27;;;;;;;0.35;0.35;;;;;;;12.58;75.01;99662.63;5096901;28;20075;-67
2022/10/03 05:55:14;;;;;;;6.55;1.67;;;;;;;12.67;74.84;99667.66;5096697;28;20409;-67
2022/10/03 05:58:13;;;;;;;0.47;0.47;;;;;;;12.75;74.54;99671.88;5096738;28;20048;-67
2022/10/03 06:01:10;;;;;;;1.05;0.82;;;;;;;12.86;74.23;99682.00;5096600;28;20094;-66
2022/10/03 06:04:09;;;;;;;0.50;0.50;;;;;;;12.98;73.86;99687.00;5095135;28;20413;-67
2022/10/03 06:06:57;;;;;;;0.32;0.32;;;;;;;13.06;73.16;99685.25;5092650;28;20154;-67
2022/10/03 06:09:56;;;;;;;0.20;0.20;;;;;;;13.15;73.09;99697.94;5096421;28;20105;-65
2022/10/03 06:12:34;;;;;;;0.50;0.50;;;;;;;13.27;72.72;99690.13;5096184;28;20048;-67
2022/10/03 06:15:25;;;;;;;0.68;0.68;;;;;;;13.32;72.51;99701.19;5096136;28;20158;-68
2022/10/03 06:18:04;;;;;;;0.80;0.80;;;;;;;13.34;72.31;99701.19;5096287;28;20516;-67
2022/10/03 06:20:54;;;;;;;0.50;0.50;;;;;;;13.30;72.74;99702.06;5095250;28;20044;-66
2022/10/03 06:23:47;;;;;;;1.20;1.00;;;;;;;13.24;72.49;99703.00;5095788;28;20551;-67
2022/10/03 06:26:39;;;;;;;0.63;0.63;;;;;;;13.18;72.58;99713.31;5096065;28;20516;-67
2022/10/03 06:29:43;;;;;;;0.40;0.40;;;;;;;13.15;72.50;99703.06;5095802;28;20493;-67
2022/10/03 06:32:34;;;;;;;0.65;0.65;;;;;;;13.13;72.88;99709.94;5095669;28;20532;-67
2022/10/03 06:35:24;;;;;;;0.28;0.28;;;;;;;13.14;73.19;99713.34;5095930;28;20044;-67
2022/10/03 06:38:17;;;;;;;0.52;0.52;;;;;;;13.14;73.01;99716.78;5095665;28;20044;-67
2022/10/03 06:41:08;;;;;;;1.27;0.98;;;;;;;13.14;73.07;99721.03;5095845;28;20051;-67
2022/10/03 06:44:02;;;;;;;2.03;0.95;;;;;;;13.07;73.14;99714.28;5095332;28;20044;-67
2022/10/03 06:46:56;;;;;;;3.05;1.70;;;;;;;13.11;72.99;99731.31;5095686;28;20103;-67
2022/10/03 06:49:52;;;;;;;0.35;0.35;;;;;;;13.17;73.10;99741.53;5095380;28;20032;-67
2022/10/03 06:52:44;;;;;;;0.32;0.32;;;;;;;13.33;73.18;99735.34;5093320;28;20508;-67
2022/10/03 06:55:38;;;;;;;0.30;0.30;;;;;;;13.55;72.76;99738.53;5095230;28;20113;-68
2022/10/03 06:58:37;;;;;;;0.30;0.30;;;;;;;13.73;72.76;99733.16;5088392;28;20048;-67
2022/10/03 07:01:43;;;;;;;0.40;0.40;;;;;;;14.02;71.81;99733.63;5074595;28;20048;-67
2022/10/03 07:04:35;;;;;;;2.08;1.70;;;;;;;14.26;71.27;99735.00;5092772;28;20130;-67
2022/10/03 07:07:22;;;;;;;0.75;0.75;;;;;;;14.36;70.85;99737.44;5054721;28;20052;-67
2022/10/03 07:10:23;;;;;;;1.45;1.35;;;;;;;14.30;70.82;99736.66;5054998;28;20442;-66
2022/10/03 07:13:19;;;;;;;0.47;0.47;;;;;;;14.14;70.83;99751.44;5054704;28;20045;-67
2022/10/03 07:16:07;;;;;;;0.40;0.40;;;;;;;14.00;70.39;99743.06;5054561;28;20047;-66
2022/10/03 07:19:22;;;;;;;1.30;1.13;;;;;;;13.91;70.53;99748.34;5054546;28;20069;-65
2022/10/03 07:22:23;;;;;;;0.40;0.40;;;;;;;13.78;70.23;99752.75;5054830;28;20063;-67
2022/10/03 07:25:24;;;;;;;0.70;0.70;;;;;;;13.73;70.31;99756.25;5054677;28;20041;-67
2022/10/03 07:28:07;;;;;;;1.08;0.98;;;;;;;13.68;70.72;99765.72;5021424;28;20427;-68
2022/10/03 07:30:57;;;;;;;10.45;0.70;;;;;;;13.66;70.70;99758.03;5052489;28;20047;-67
2022/10/03 07:33:40;;;;;;;;;;;;;;;13.63;71.07;99763.19;5054764;28;20052;-67
2022/10/03 07:39:44;;;;;;;0.40;0.40;;;;;;;13.57;70.89;99754.75;5029636;28;20398;-67
2022/10/03 07:42:44;;;;;;;0.30;0.30;;;;;;;13.64;71.07;99774.31;5022170;28;20041;-68
2022/10/03 07:45:33;;;;;;;0.60;0.60;;;;;;;13.68;71.42;99771.69;5025275;28;20092;-67
2022/10/03 07:48:21;;;;;;;0.45;0.45;;;;;;;13.73;71.19;99774.19;5034130;28;20514;-67
2022/10/03 07:51:13;;;;;;;0.63;0.60;;;;;;;13.73;71.53;99779.34;5034084;28;20057;-67
2022/10/03 07:54:04;;;;;;;0.30;0.30;;;;;;;13.72;71.45;99775.09;5033715;28;20442;-68
2022/10/03 07:57:04;;;;;;;0.63;0.60;;;;;;;13.77;71.24;99775.88;5054264;28;20046;-66
2022/10/03 07:59:58;;;;;;;0.60;0.60;;;;;;;13.79;70.75;99774.16;5040323;28;20049;-67
2022/10/03 08:02:58;;;;;;;1.15;0.95;;;;;;;13.81;71.01;99774.97;5052084;28;20178;-67
2022/10/03 08:05:40;;;;;;;0.98;0.82;;;;;;;13.87;71.41;99777.44;5047741;28;20044;-67
2022/10/03 08:08:43;;;;;;;0.40;0.40;;;;;;;13.88;70.95;99779.16;5082260;28;20066;-67
2022/10/03 08:11:41;;;;;;;1.55;0.70;;;;;;;13.87;71.23;99774.88;5076188;28;20097;-68
2022/10/03 08:14:19;;;;;;;0.43;0.40;;;;;;;13.87;71.54;99777.44;5088305;28;20114;-67
2022/10/03 08:17:09;;;;;;;1.85;0.80;;;;;;;13.92;71.45;99780.81;5093079;28;20051;-67
2022/10/03 08:20:01;;;;;;;0.52;0.50;;;;;;;13.95;71.59;99775.63;5093405;28;20040;-66
2022/10/03 08:22:48;;;;;;;0.60;0.60;;;;;;;13.97;71.46;99779.03;5093840;28;20044;-67
2022/10/03 08:25:27;;;;;;;0.40;0.40;;;;;;;13.99;71.00;99778.16;5093610;28;20048;-67
2022/10/03 08:28:21;;;;;;;0.30;0.30;;;;;;;14.02;71.52;99782.38;5094028;28;20076;-67
2022/10/03 08:31:24;;;;;;;0.60;0.60;;;;;;;14.07;71.57;99783.19;5094082;28;20490;-67
2022/10/03 08:34:22;;;;;;;0.85;0.85;;;;;;;14.06;71.08;99778.91;5093876;28;20029;-67
2022/10/03 08:37:21;;;;;;;0.40;0.40;;;;;;;14.04;71.16;99780.66;5093493;28;20044;-67
2022/10/03 08:40:16;;;;;;;0.30;0.30;;;;;;;14.09;71.50;99784.00;5092660;28;20051;-67
2022/10/03 08:43:23;;;;;;;0.80;0.52;;;;;;;14.08;71.75;99782.31;5093591;28;20482;-67
2022/10/03 08:46:03;;;;;;;0.50;0.50;;;;;;;14.09;71.99;99766.03;5080036;28;20040;-67
2022/10/03 08:48:52;;;;;;;1.25;0.73;;;;;;;14.02;72.38;99764.41;5077148;28;20044;-67
2022/10/03 08:51:53;;;;;;;0.40;0.40;;;;;;;14.01;72.57;99778.97;5077192;28;20445;-67
2022/10/03 08:54:41;;;;;;;0.85;0.85;;;;;;;14.02;72.76;99777.25;5077062;28;20135;-67
2022/10/03 08:57:29;;;;;;;0.70;0.52;;;;;;;14.06;72.95;99776.34;5077359;28;20049;-66
2022/10/03 09:00:14;;;;;;;0.50;0.50;;;;;;;14.03;72.35;99784.09;5077523;28;20063;-66
2022/10/03 09:03:09;;;;;;;5.15;0.80;;;;;;;14.03;72.39;99795.22;5076043;28;20537;-66
2022/10/03 09:06:23;;;;;;;6.25;1.35;;;;;;;14.07;72.52;99796.00;5086630;28;20567;-65
2022/10/03 09:09:13;;;;;;;0.35;0.35;;;;;;;14.03;72.10;99802.06;5097665;28;20044;-67
2022/10/03 09:12:00;;;;;;;;;;;;;;;14.02;72.29;99797.78;5097641;28;20048;-67
2022/10/03 09:14:44;;;;;;;6.75;1.17;;;;;;;14.07;72.57;99790.88;5097557;28;19970;-67
2022/10/03 09:17:48;;;;;;;0.40;0.40;;;;;;;14.01;73.03;99790.97;5094127;28;20051;-67
2022/10/03 09:20:49;;;;;;;0.43;0.43;;;;;;;13.99;73.50;99797.81;5086634;28;20102;-67
2022/10/03 09:23:48;;;;;;;0.30;0.30;;;;;;;13.95;73.65;99791.91;5087796;28;20115;-67
2022/10/03 09:26:50;;;;;;;0.50;0.50;;;;;;;14.07;74.05;99790.88;5087398;28;20050;-67
2022/10/03 09:29:38;;;;;;;0.30;0.30;;;;;;;14.13;73.76;99790.81;5057827;28;20052;-66
2022/10/03 09:32:38;;;;;;;0.52;0.52;;;;;;;14.24;73.42;99793.22;5094069;28;20506;-66
2022/10/03 09:35:27;;;;;;;0.43;0.43;;;;;;;14.32;73.37;99771.75;5096839;28;20097;-67
2022/10/03 09:38:26;;;;;;;0.50;0.50;;;;;;;14.38;73.29;99775.94;5096839;28;20125;-66
2022/10/03 09:41:20;;;;;;;0.65;0.50;;;;;;;14.41;72.75;99771.63;5097011;28;20041;-65
2022/10/03 09:44:20;;;;;;;0.40;0.40;;;;;;;14.45;72.09;99774.97;5096806;28;20123;-67
2022/10/03 09:50:23;;;;;;;0.47;0.47;;;;;;;14.48;71.88;99772.38;5096133;28;20560;-70
2022/10/03 09:53:18;;;;;;;0.60;0.60;;;;;;;14.49;71.79;99785.16;5090778;28;20497;-67
2022/10/03 09:56:13;;;;;;;0.30;0.30;;;;;;;14.43;71.83;99785.28;5096265;28;20048;-67
2022/10/03 09:59:10;;;;;;;0.70;0.70;;;;;;;14.33;72.04;99770.88;5094162;28;20059;-66
2022/10/03 10:01:49;;;;;;;0.65;0.65;;;;;;;14.34;73.66;99782.84;5096678;28;20379;-67
2022/10/03 10:04:29;;;;;;;;;;;;;;;14.30;74.31;99782.88;5096933;28;20043;-67
2022/10/03 10:07:50;;;;;;;0.55;0.55;;;;;;;14.23;74.80;99781.28;5096134;28;19927;-68
2022/10/03 10:10:47;;;;;;;0.32;0.32;;;;;;;14.24;75.42;99781.25;5096125;28;20493;-67
2022/10/03 10:13:34;;;;;;;0.47;0.47;;;;;;;14.27;75.43;99778.63;5091613;28;20052;-68
2022/10/03 10:16:55;;;;;;;0.35;0.35;;;;;;;14.24;75.00;99773.53;5093012;28;20036;-67
2022/10/03 10:19:51;;;;;;;0.40;0.40;;;;;;;14.32;74.33;99776.88;5071097;28;20105;-67
2022/10/03 10:22:42;;;;;;;12.70;1.75;;;;;;;14.42;74.23;99772.47;5076393;28;20068;-67
2022/10/03 10:25:30;;;;;;;0.68;0.63;;;;;;;14.48;73.96;99767.22;5084717;28;20045;-68
2022/10/03 10:28:25;;;;;;;0.40;0.40;;;;;;;14.48;73.88;99762.94;5075597;28;20049;-67
2022/10/03 10:31:20;;;;;;;0.40;0.40;;;;;;;14.57;72.85;99761.94;5092457;28;20440;-68
2022/10/03 10:34:20;;;;;;;0.57;0.52;;;;;;;14.63;72.84;99754.16;5095663;28;20036;-68
2022/10/03 10:37:33;;;;;;;4.30;0.65;;;;;;;14.71;72.20;99760.00;5089840;28;20040;-68
2022/10/03 10:40:28;;;;;;;0.50;0.50;;;;;;;14.70;72.30;99768.59;5095561;28;20048;-69
2022/10/03 10:43:28;;;;;;;0.40;0.40;;;;;;;14.68;71.75;99768.59;5095509;28;20098;-68
2022/10/03 10:46:29;;;;;;;0.30;0.30;;;;;;;14.62;73.02;99771.28;5095620;28;20032;-69
2022/10/03 10:49:38;;;;;;;0.30;0.30;;;;;;;14.44;74.23;99770.72;5053006;28;20036;-68
2022/10/03 10:52:27;;;;;;;0.75;0.75;;;;;;;14.37;75.04;99759.66;5095623;28;20480;-68
2022/10/03 10:55:23;;;;;;;1.13;1.03;;;;;;;14.40;75.18;99769.91;5095280;28;20055;-68
2022/10/03 10:58:28;;;;;;;1.10;0.95;;;;;;;14.40;75.69;99754.50;5060994;28;20379;-69
2022/10/03 11:01:28;;;;;;;3.95;1.58;;;;;;;14.43;75.81;99759.59;5092144;28;20040;-71
2022/10/03 11:04:34;;;;;;;0.75;0.50;;;;;;;14.42;76.35;99763.00;5076884;28;20479;-69
2022/10/03 11:07:26;;;;;;;0.50;0.50;;;;;;;14.47;76.13;99756.09;5074583;28;20032;-68
2022/10/03 11:10:23;;;;;;;0.30;0.30;;;;;;;14.49;75.34;99764.63;5075089;28;20098;-68
2022/10/03 11:13:21;;;;;;;0.65;0.65;;;;;;;14.57;74.97;99761.94;5072752;28;20048;-69
2022/10/03 11:16:28;;;;;;;0.70;0.70;;;;;;;14.63;74.65;99772.13;5074768;28;20052;-69
2022/10/03 11:19:25;;;;;;;0.35;0.35;;;;;;;14.64;73.74;99769.53;5077051;28;20040;-69
2022/10/03 11:22:24;;;;;;;0.40;0.40;;;;;;;14.67;73.38;99771.19;5094667;28;20054;-68
2022/10/03 11:25:13;;;;;;;0.55;0.55;;;;;;;14.66;72.81;99765.22;5087862;28;20125;-68
2022/10/03 11:28:09;;;;;;;0.40;0.40;;;;;;;14.73;73.16;99761.66;5095023;28;20085;-68
2022/10/03 11:31:08;;;;;;;0.50;0.50;;;;;;;14.84;73.08;99760.66;5094919;28;20432;-69
2022/10/03 11:34:10;;;;;;;0.88;0.80;;;;;;;15.03;72.68;99754.31;5094917;28;20055;-69
2022/10/03 11:37:00;;;;;;;0.60;0.60;;;;;;;15.55;72.27;99754.25;5084842;28;20061;-67
2022/10/03 11:39:40;;;;;;;0.68;0.60;;;;;;;15.81;71.45;99755.41;5093527;28;20044;-68
2022/10/03 11:42:23;;;;;;;0.60;0.60;;;;;;;15.85;70.44;99753.63;5091866;28;20036;-68
2022/10/03 11:44:58;;;;;;;0.55;0.55;;;;;;;15.77;68.47;99761.50;5094289;28;20040;-68
2022/10/03 11:47:42;;;;;;;0.40;0.40;;;;;;;15.84;67.65;99765.63;5094267;28;20056;-68
2022/10/03 11:50:33;;;;;;;0.75;0.75;;;;;;;16.31;66.98;99745.75;5094593;28;20044;-67
2022/10/03 11:53:14;;;;;;;0.73;0.47;;;;;;;16.69;65.87;99749.16;5084213;28;20051;-68
2022/10/03 11:55:50;;;;;;;0.68;0.60;;;;;;;16.98;64.35;99735.53;5087884;28;20048;-69
2022/10/03 11:58:37;;;;;;;0.55;0.55;;;;;;;17.14;62.62;99762.59;5094285;28;20142;-67
2022/10/03 12:01:24;;;;;;;0.50;0.50;;;;;;;17.15;61.08;99759.16;5093962;28;20075;-65
2022/10/03 12:04:03;;;;;;;0.40;0.40;;;;;;;16.98;58.73;99758.72;5094310;28;20044;-67
2022/10/03 12:09:42;;;;;;;1.23;0.95;;;;;;;16.91;57.42;99754.63;5093902;28;20048;-66
2022/10/03 12:12:20;;;;;;;0.30;0.30;;;;;;;16.86;57.41;99750.44;5094281;28;20054;-67
2022/10/03 12:14:52;;;;;;;0.40;0.40;;;;;;;17.11;57.11;99752.34;5094128;28;20040;-66
2022/10/03 12:17:30;;;;;;;0.40;0.40;;;;;;;17.31;56.82;99755.28;5093729;28;20056;-67
2022/10/03 12:20:14;;;;;;;0.45;0.45;;;;;;;17.35;56.77;99766.34;5093632;28;20048;-67
2022/10/03 12:22:50;;;;;;;0.45;0.45;;;;;;;17.15;56.21;99759.16;5093710;28;20052;-66
2022/10/03 12:25:23;;;;;;;0.40;0.40;;;;;;;16.95;55.99;99756.22;5093931;28;20474;-67
2022/10/03 12:28:11;;;;;;;0.55;0.55;;;;;;;16.89;56.49;99752.97;5094260;28;20057;-67
2022/10/03 12:30:47;;;;;;;0.40;0.40;;;;;;;16.82;57.44;99749.66;5092601;28;20040;-67
2022/10/03 12:33:31;;;;;;;0.50;0.50;;;;;;;16.73;57.66;99749.91;5093599;28;20059;-66
2022/10/03 12:36:12;;;;;;;0.40;0.40;;;;;;;16.63;57.44;99746.69;5093543;28;20075;-66
2022/10/03 12:38:56;;;;;;;0.60;0.60;;;;;;;16.58;57.16;99740.81;5093889;28;20121;-67
2022/10/03 12:41:52;;;;;;;0.43;0.43;;;;;;;16.60;57.52;99740.78;5093516;28;20048;-66
2022/10/03 12:44:36;;;;;;;0.45;0.45;;;;;;;16.55;57.33;99745.22;5093797;28;20048;-68
2022/10/03 12:47:23;;;;;;;0.43;0.43;;;;;;;16.53;57.85;99747.81;5092218;28;20494;-68
2022/10/03 12:50:30;;;;;;;0.50;0.50;;;;;;;16.48;58.43;99743.63;5093345;28;20043;-67
2022/10/03 12:53:20;;;;;;;0.40;0.40;;;;;;;16.45;58.49;99751.41;5087118;28;20040;-68
2022/10/03 12:56:00;;;;;;;0.40;0.40;;;;;;;16.33;58.61;99746.56;5084665;28;20040;-67
2022/10/03 12:58:41;;;;;;;0.55;0.55;;;;;;;16.29;58.37;99737.22;5079447;28;20486;-67
2022/10/03 13:01:16;;;;;;;0.30;0.30;;;;;;;16.59;58.57;99744.25;5073539;28;20045;-67
2022/10/03 13:03:53;;;;;;;0.50;0.50;;;;;;;17.15;58.33;99758.31;5088862;28;20525;-68
2022/10/03 13:06:53;;;;;;;1.02;0.80;;;;;;;17.43;57.52;99749.78;5072759;28;20048;-67
2022/10/03 13:09:59;;;;;;;0.40;0.40;;;;;;;17.52;56.24;99737.53;5073050;28;20144;-67
2022/10/03 13:12:38;;;;;;;0.40;0.40;;;;;;;17.86;56.13;99753.75;5073360;28;20056;-67
2022/10/03 13:15:43;;;;;;;0.60;0.60;;;;;;;18.08;55.92;99742.75;5073138;28;20053;-67
2022/10/03 13:18:37;;;;;;;0.40;0.40;;;;;;;18.22;54.75;99750.06;5073284;28;20513;-67
2022/10/03 13:21:14;;;;;;;0.30;0.30;;;;;;;18.36;53.43;99745.31;5071614;28;20540;-66
2022/10/03 13:24:07;;;;;;;0.38;0.38;;;;;;;18.53;53.51;99758.59;5073382;28;20397;-67
2022/10/03 13:26:52;;;;;;;2.95;1.40;;;;;;;18.73;53.22;99753.66;5073114;28;20466;-67
2022/10/03 13:29:25;;;;;;;0.45;0.45;;;;;;;18.79;53.12;99754.34;5074117;28;20505;-66